South Pomfret, VT (05067)

2:32 AM EDT on August 31, 2016 (GMT -0400)
Suicide Six Ski Area | | Change Station

Elev 850 ft 43.68 °N, 72.56 °W | Updated 14 seconds ago

Clear
Clear
56.5 °F
Feels Like 56.5 °F
N
0.0
Wind Variable Wind from WSW
Gusts 0.0 mph

Today
High -- | Low -- °F
--% Chance of Precip.
Yesterday
High -- | Low -- °F
Precip. -- in
Pressure 29.99 in
Visibility 10.0 miles
Clouds Clear
Dew Point 55 °F
Humidity 96%
Rainfall 0.00 in
Snow Depth Not available.
6:13 AM 7:26 PM
Waning Crescent, 1% visible
METAR KLEB 310553Z AUTO 00000KT 10SM CLR 16/13 A3001 RMK AO2 SLP153 T01560133 10189 20150 58007
Pressure 29.99 in
Visibility 10.0 miles
Clouds Clear
Dew Point 55 °F
Humidity 96%
Rainfall 0.00 in
Snow Depth Not available.
6:13 AM 7:26 PM
Waning Crescent, 1% visible
METAR KLEB 310553Z AUTO 00000KT 10SM CLR 16/13 A3001 RMK AO2 SLP153 T01560133 10189 20150 58007

10-Day Weather Forecast

Almanac

Astronomy

Aug. 31, 2016 Rise Set
Actual Time
Civil Twilight
Nautical Twilight
Astronomical Twilight
Moon
Length of Visible Light
Length of Day
Tomorrow will be .
, % of the Moon is Illuminated

Today's Extremes

State Highs State Lows

Community

WunderPhotos

Upload Photos

1,936,040 photos uploaded!

WunderBlog® & News

Nearby

Air Quality

  Air Quality AQ Index Pollutant
Not available.

Snow Depth

Station Depth Elevation

Earthquake Activity

City Distance Mag. Time & Date
Minimum magnitude displayed is 2.5.

Coastal Water Temperatures

Place Temperature

Stations

Nearby Weather Stations

Station Location Temp. Windchill Dew Point Humidity Wind Precip. Elev Updated Type
                   

Watches & Warnings

There are currently no watches in effect.